Time;durP1;ratioP1;P1;durP2;ratioP2;P2;SDS_P1;SDS_P2;PMS_P1;PMS_P2;Temp;Humidity;BMP_temperature;BMP_pressure;BME280_temperature;BME280_humidity;BME280_pressure;Samples;Min_cycle;Max_cycle;Signal;HPM_P1;HPM_P2
2023/01/18 00:00:47;;;;;;;13.53;12.83;;;6.30;32.70;;;;;;5009901;28;20817;-76
2023/01/18 00:03:12;;;;;;;14.60;13.83;;;6.30;32.50;;;;;;5011615;28;20479;-76
2023/01/18 00:05:42;;;;;;;13.80;12.90;;;6.40;32.80;;;;;;5010036;28;20332;-76
2023/01/18 00:08:13;;;;;;;14.27;13.50;;;6.40;32.90;;;;;;5009820;28;20184;-76
2023/01/18 00:10:39;;;;;;;14.10;13.40;;;6.30;32.80;;;;;;5009879;28;20438;-76
2023/01/18 00:13:05;;;;;;;13.90;13.20;;;6.40;32.90;;;;;;5009874;28;20554;-77
2023/01/18 00:15:31;;;;;;;15.60;14.80;;;6.40;32.70;;;;;;5009137;28;20439;-76
2023/01/18 00:17:57;;;;;;;14.10;13.47;;;6.30;32.70;;;;;;5009663;28;20733;-75
2023/01/18 00:20:24;;;;;;;14.33;13.63;;;6.20;32.60;;;;;;5009074;28;20416;-76
2023/01/18 00:22:51;;;;;;;14.80;14.07;;;6.30;32.80;;;;;;5009810;28;20197;-75
2023/01/18 00:25:18;;;;;;;14.87;14.10;;;6.30;32.80;;;;;;5009237;28;20799;-75
2023/01/18 00:27:46;;;;;;;14.47;13.77;;;6.20;32.90;;;;;;5015851;28;20439;-75
2023/01/18 00:30:13;;;;;;;13.67;12.97;;;6.30;32.80;;;;;;5013610;28;20421;-74
2023/01/18 00:32:38;;;;;;;13.43;12.80;;;6.30;32.70;;;;;;5009740;28;20420;-75
2023/01/18 00:35:06;;;;;;;13.63;12.90;;;6.30;32.90;;;;;;5011039;28;20440;-75
2023/01/18 00:37:32;;;;;;;13.43;12.73;;;6.20;33.10;;;;;;5011639;28;20264;-75
2023/01/18 00:39:58;;;;;;;14.37;13.57;;;6.30;32.90;;;;;;5009302;28;20412;-75
2023/01/18 00:45:08;;;;;;;14.03;13.33;;;6.30;33.00;;;;;;5009658;28;20232;-75
2023/01/18 00:47:34;;;;;;;13.40;12.70;;;6.30;32.90;;;;;;5009177;28;20408;-76
2023/01/18 00:49:59;;;;;;;14.73;14.00;;;6.40;32.30;;;;;;5008247;28;20421;-75
2023/01/18 00:52:25;;;;;;;14.40;13.67;;;6.40;32.40;;;;;;4991373;28;20196;-76
2023/01/18 00:54:50;;;;;;;14.97;14.03;;;6.30;31.90;;;;;;5007167;28;20193;-76
2023/01/18 00:57:16;;;;;;;14.63;13.83;;;5.90;33.00;;;;;;5009045;28;20185;-76
2023/01/18 00:59:41;;;;;;;13.93;13.23;;;5.70;34.90;;;;;;5012792;28;20189;-76
2023/01/18 01:02:07;;;;;;;16.00;15.10;;;5.90;34.30;;;;;;5012748;28;20204;-76
2023/01/18 01:07:16;;;;;;;15.37;14.57;;;6.00;33.10;;;;;;5012807;28;20188;-76
2023/01/18 01:09:43;;;;;;;14.73;13.83;;;6.10;33.10;;;;;;5012650;28;20412;-76
2023/01/18 01:26:06;;;;;;;16.80;15.83;;;6.10;33.50;;;;;;5012041;28;20439;-77
2023/01/18 01:28:36;;;;;;;16.17;15.37;;;6.10;33.00;;;;;;5010936;28;20424;-76
2023/01/18 01:31:03;;;;;;;16.30;15.40;;;6.10;32.90;;;;;;5010753;28;20448;-76
2023/01/18 01:33:30;;;;;;;17.70;16.70;;;6.10;32.40;;;;;;5010385;28;20536;-75
2023/01/18 01:35:58;;;;;;;16.60;15.70;;;6.10;32.80;;;;;;5011634;28;20478;-76
2023/01/18 01:38:24;;;;;;;16.00;15.17;;;6.00;32.70;;;;;;5011990;28;20408;-76
2023/01/18 01:41:03;;;;;;;16.60;15.60;;;6.10;32.90;;;;;;5010699;28;20425;-75
2023/01/18 01:43:39;;;;;;;17.17;16.27;;;6.10;32.50;;;;;;5010603;28;20463;-76
2023/01/18 01:46:17;;;;;;;18.57;17.47;;;6.10;32.30;;;;;;5011709;28;21129;-76
2023/01/18 01:48:43;;;;;;;15.93;15.13;;;6.00;32.80;;;;;;5011947;28;20408;-75
2023/01/18 01:51:10;;;;;;;16.47;15.57;;;6.10;32.90;;;;;;5011636;28;20413;-75
2023/01/18 01:53:36;;;;;;;17.50;16.60;;;6.10;32.80;;;;;;5010293;28;20499;-76
2023/01/18 01:56:03;;;;;;;16.67;15.77;;;6.00;32.60;;;;;;5011093;28;20582;-76
2023/01/18 01:58:30;;;;;;;16.37;15.47;;;6.00;32.90;;;;;;5011600;28;20412;-76
2023/01/18 02:00:56;;;;;;;15.93;15.13;;;6.00;33.00;;;;;;5011240;28;20408;-75
2023/01/18 02:03:23;;;;;;;16.10;15.30;;;6.10;32.70;;;;;;5011400;28;20459;-76
2023/01/18 02:05:59;;;;;;;16.20;15.30;;;6.00;33.80;;;;;;5011864;28;20197;-75
2023/01/18 02:08:26;;;;;;;16.70;15.70;;;6.00;34.00;;;;;;5010313;28;20507;-76
2023/01/18 02:10:52;;;;;;;16.40;15.50;;;6.10;33.40;;;;;;5010054;28;20483;-76
2023/01/18 02:13:21;;;;;;;15.57;14.77;;;6.10;32.70;;;;;;5011184;28;20404;-75
2023/01/18 02:16:11;;;;;;;16.30;15.47;;;6.10;32.40;;;;;;5011280;28;20696;-76
2023/01/18 02:18:57;;;;;;;15.90;15.10;;;6.00;32.70;;;;;;5011803;28;20409;-75
2023/01/18 02:21:45;;;;;;;15.07;14.27;;;6.00;32.80;;;;;;5015205;28;20560;-76
2023/01/18 02:24:31;;;;;;;15.87;14.97;;;6.10;32.70;;;;;;5019593;28;20456;-76
2023/01/18 02:27:04;;;;;;;16.27;15.37;;;5.80;33.90;;;;;;5009956;28;20459;-77
2023/01/18 02:30:03;;;;;;;16.40;15.50;;;5.80;34.20;;;;;;5009514;28;20435;-76
2023/01/18 02:32:43;;;;;;;15.73;14.93;;;5.70;34.60;;;;;;5010010;28;20416;-76
2023/01/18 02:35:10;;;;;;;14.73;13.93;;;5.70;34.40;;;;;;5011135;28;20960;-75
2023/01/18 02:37:39;;;;;;;14.83;14.03;;;5.80;34.30;;;;;;5011360;28;20934;-77
2023/01/18 02:40:35;;;;;;;16.63;15.73;;;5.80;33.30;;;;;;5009811;28;20417;-75
2023/01/18 02:48:36;;;;;;;15.50;14.70;;;5.60;35.20;;;;;;5011176;28;20488;-75
2023/01/18 02:51:03;;;;;;;16.57;15.57;;;5.60;34.00;;;;;;5010904;28;20404;-74
2023/01/18 02:53:30;;;;;;;16.60;15.70;;;5.60;34.90;;;;;;5009857;28;20424;-76
2023/01/18 02:56:15;;;;;;;18.23;17.23;;;5.60;33.50;;;;;;5009871;28;20494;-75
2023/01/18 02:59:10;;;;;;;16.17;15.27;;;5.10;35.90;;;;;;5009001;28;20424;-76
2023/01/18 03:01:41;;;;;;;17.57;16.57;;;5.00;37.10;;;;;;4997499;28;20846;-75
2023/01/18 03:04:18;;;;;;;18.10;17.10;;;5.20;36.00;;;;;;5011130;28;20862;-74
2023/01/18 03:06:50;;;;;;;16.80;15.90;;;5.00;36.30;;;;;;5010470;28;20464;-76
2023/01/18 03:09:20;;;;;;;18.07;17.10;;;5.00;37.10;;;;;;5008549;28;20843;-75
2023/01/18 03:12:01;;;;;;;17.63;16.73;;;4.70;38.20;;;;;;5009913;28;20407;-76
2023/01/18 03:14:46;;;;;;;18.17;17.10;;;4.30;39.20;;;;;;5009740;28;20831;-76
2023/01/18 03:17:25;;;;;;;19.10;18.10;;;4.40;39.80;;;;;;5010095;28;20503;-75
2023/01/18 03:20:06;;;;;;;18.53;17.50;;;4.70;39.50;;;;;;5008478;28;20416;-75
2023/01/18 03:25:47;;;;;;;19.07;17.87;;;5.10;37.70;;;;;;5009537;28;20450;-75
2023/01/18 03:33:54;;;;;;;16.60;15.70;;;5.30;35.80;;;;;;5010226;28;20466;-76
2023/01/18 03:36:34;;;;;;;18.33;17.33;;;5.30;35.70;;;;;;5009504;28;20438;-76
2023/01/18 03:39:08;;;;;;;18.90;17.80;;;5.30;35.40;;;;;;5010149;28;20408;-76
2023/01/18 03:41:38;;;;;;;18.77;17.70;;;5.20;36.00;;;;;;5009615;28;20930;-76
2023/01/18 03:44:09;;;;;;;17.00;16.07;;;5.20;36.30;;;;;;5008773;28;20816;-76
2023/01/18 03:46:37;;;;;;;17.60;16.70;;;5.30;35.10;;;;;;4991592;28;20440;-75
2023/01/18 03:49:04;;;;;;;17.77;16.77;;;5.40;35.00;;;;;;5008163;28;20427;-75
2023/01/18 03:51:48;;;;;;;16.97;16.07;;;5.50;34.50;;;;;;5009406;28;20408;-76
2023/01/18 03:54:55;;;;;;;17.03;16.13;;;5.60;35.10;;;;;;5007686;28;20424;-75
2023/01/18 03:57:33;;;;;;;17.10;16.20;;;5.70;34.00;;;;;;5009121;28;20915;-74
2023/01/18 04:00:00;;;;;;;17.00;16.10;;;5.70;33.20;;;;;;5008182;28;20426;-75
2023/01/18 04:02:26;;;;;;;17.70;16.70;;;5.70;33.70;;;;;;4991259;28;20590;-76
2023/01/18 04:04:56;;;;;;;18.00;17.10;;;5.60;33.50;;;;;;5009342;28;20456;-76
2023/01/18 04:07:25;;;;;;;17.93;16.80;;;5.60;33.40;;;;;;5009550;28;20416;-76
2023/01/18 04:09:51;;;;;;;18.40;17.20;;;5.60;33.30;;;;;;5010377;28;20412;-76
2023/01/18 04:12:17;;;;;;;18.70;17.60;;;5.60;33.30;;;;;;5014355;28;20898;-75
2023/01/18 04:14:42;;;;;;;17.43;16.53;;;5.60;33.80;;;;;;5008713;28;20421;-74
2023/01/18 04:17:08;;;;;;;18.30;17.30;;;5.50;33.80;;;;;;5010924;28;20770;-75
2023/01/18 04:19:33;;;;;;;17.90;16.90;;;5.50;34.20;;;;;;5010226;28;20181;-75
2023/01/18 04:21:59;;;;;;;18.27;17.27;;;5.50;34.00;;;;;;4992226;28;20484;-75
2023/01/18 04:24:24;;;;;;;18.47;17.27;;;5.50;34.50;;;;;;5009449;28;20219;-75
2023/01/18 04:26:50;;;;;;;18.37;17.33;;;5.50;34.80;;;;;;5009033;28;20204;-76
2023/01/18 04:29:16;;;;;;;17.73;16.80;;;5.50;34.60;;;;;;5007968;28;20622;-76
2023/01/18 04:31:41;;;;;;;18.97;17.87;;;5.50;33.80;;;;;;5008671;28;20174;-76
2023/01/18 04:34:07;;;;;;;17.73;16.73;;;5.50;34.00;;;;;;5008939;28;20196;-76
2023/01/18 04:36:33;;;;;;;19.50;18.30;;;5.40;34.10;;;;;;5008574;28;20213;-75
2023/01/18 04:38:58;;;;;;;19.30;18.20;;;5.40;35.10;;;;;;5009080;28;20702;-76
2023/01/18 04:41:24;;;;;;;17.77;16.83;;;5.50;34.60;;;;;;5009356;28;20185;-75
2023/01/18 04:43:49;;;;;;;17.97;16.97;;;5.60;34.50;;;;;;5011213;28;20213;-76
2023/01/18 04:46:15;;;;;;;18.80;17.80;;;5.60;34.50;;;;;;5009191;28;20699;-75
2023/01/18 04:48:41;;;;;;;20.77;19.57;;;5.60;35.20;;;;;;5009544;28;20178;-75
2023/01/18 04:51:11;;;;;;;18.40;17.30;;;5.70;34.40;;;;;;5009973;28;20189;-75
2023/01/18 04:53:37;;;;;;;17.87;16.87;;;5.70;34.80;;;;;;4993207;28;20447;-74
2023/01/18 04:56:03;;;;;;;18.10;17.10;;;5.90;33.20;;;;;;5012185;28;20768;-76
2023/01/18 04:58:29;;;;;;;18.40;17.40;;;6.00;33.10;;;;;;5012780;28;20412;-77
2023/01/18 05:00:54;;;;;;;19.30;18.10;;;6.10;32.40;;;;;;5013185;28;20177;-76
2023/01/18 05:03:20;;;;;;;16.13;15.13;;;6.10;32.40;;;;;;5013610;28;20201;-76
2023/01/18 05:05:45;;;;;;;15.13;14.40;;;6.10;31.90;;;;;;5011316;28;20580;-75
2023/01/18 05:08:11;;;;;;;15.60;14.90;;;6.10;31.40;;;;;;5013393;28;20663;-76
2023/01/18 05:10:36;;;;;;;15.60;14.80;;;6.00;31.20;;;;;;5012983;28;20251;-76
2023/01/18 05:13:02;;;;;;;16.63;15.83;;;6.00;31.70;;;;;;5013387;28;20189;-75
2023/01/18 05:15:28;;;;;;;15.93;15.10;;;5.90;31.60;;;;;;5013894;28;20205;-75
2023/01/18 05:17:53;;;;;;;14.87;14.17;;;5.90;32.10;;;;;;5012739;28;20409;-75
2023/01/18 05:20:19;;;;;;;14.60;13.80;;;5.90;31.70;;;;;;5013614;28;20182;-75
2023/01/18 05:22:44;;;;;;;14.80;14.10;;;5.90;32.10;;;;;;5013867;28;20510;-75
2023/01/18 05:25:10;;;;;;;14.13;13.33;;;6.00;31.90;;;;;;5013465;28;20213;-74
2023/01/18 05:27:36;;;;;;;14.00;13.30;;;5.90;31.60;;;;;;5010709;28;20197;-75
2023/01/18 05:30:02;;;;;;;14.30;13.70;;;5.90;31.40;;;;;;5009526;28;20216;-73
2023/01/18 05:32:27;;;;;;;13.87;13.27;;;5.90;30.90;;;;;;5009813;28;20803;-76
2023/01/18 05:34:53;;;;;;;14.47;13.77;;;5.70;31.30;;;;;;5010035;28;20408;-77
2023/01/18 05:37:18;;;;;;;13.67;13.07;;;5.70;32.00;;;;;;5010925;28;20189;-77
2023/01/18 05:39:44;;;;;;;13.77;13.10;;;5.60;31.70;;;;;;5005217;28;20182;-76
2023/01/18 05:42:09;;;;;;;14.33;13.73;;;5.60;31.70;;;;;;4990264;28;20240;-74
2023/01/18 05:44:35;;;;;;;13.00;12.50;;;5.40;33.10;;;;;;4990026;28;20371;-75
2023/01/18 05:47:01;;;;;;;13.10;12.60;;;5.30;32.20;;;;;;4983231;28;20688;-75
2023/01/18 05:49:28;;;;;;;12.80;12.30;;;5.20;33.30;;;;;;4986142;28;20285;-75
2023/01/18 05:51:53;;;;;;;13.20;12.60;;;5.10;32.80;;;;;;4993736;28;20182;-74
2023/01/18 05:54:19;;;;;;;12.33;11.63;;;5.00;34.20;;;;;;4995008;28;20926;-73
2023/01/18 05:56:45;;;;;;;12.80;12.10;;;5.10;34.00;;;;;;4976907;28;20293;-74
2023/01/18 05:59:12;;;;;;;11.70;11.20;;;5.10;33.40;;;;;;4994825;28;20232;-75
2023/01/18 06:01:38;;;;;;;13.30;12.80;;;5.10;33.60;;;;;;4995068;28;20190;-75
2023/01/18 06:04:03;;;;;;;12.67;12.07;;;5.20;33.30;;;;;;5001617;28;20527;-73
2023/01/18 06:06:29;;;;;;;12.40;11.87;;;5.10;33.90;;;;;;4996012;28;20694;-74
2023/01/18 06:08:55;;;;;;;12.93;12.33;;;5.20;34.50;;;;;;4995904;28;20415;-74
2023/01/18 06:11:20;;;;;;;12.60;12.03;;;5.20;33.60;;;;;;4997758;28;20449;-74
2023/01/18 06:13:46;;;;;;;13.57;12.97;;;5.30;33.30;;;;;;4996933;28;20551;-75
2023/01/18 06:16:12;;;;;;;12.93;12.33;;;5.30;33.90;;;;;;4995814;28;20367;-74
2023/01/18 06:18:38;;;;;;;12.70;12.20;;;5.40;33.50;;;;;;4996695;28;20706;-75
2023/01/18 06:21:04;;;;;;;12.37;11.87;;;5.40;33.30;;;;;;4994001;28;20177;-74
2023/01/18 06:23:30;;;;;;;12.90;12.40;;;5.30;33.70;;;;;;4989906;28;20527;-75
2023/01/18 06:25:56;;;;;;;12.47;11.97;;;5.20;33.80;;;;;;4993541;28;20210;-75
2023/01/18 06:28:21;;;;;;;12.83;12.23;;;5.20;34.20;;;;;;4994137;28;20409;-76
2023/01/18 06:30:50;;;;;;;12.20;11.70;;;5.30;33.70;;;;;;4993760;28;20193;-75
2023/01/18 06:33:16;;;;;;;13.43;12.83;;;5.20;33.80;;;;;;4993356;28;20190;-75
2023/01/18 06:35:42;;;;;;;12.97;12.37;;;5.20;34.20;;;;;;4994399;28;20436;-75
2023/01/18 06:38:08;;;;;;;13.30;12.80;;;5.10;34.00;;;;;;4994420;28;20895;-76
2023/01/18 06:40:34;;;;;;;12.30;11.70;;;5.10;34.00;;;;;;4994340;28;20421;-74
2023/01/18 06:43:00;;;;;;;12.70;12.10;;;5.00;34.30;;;;;;4994882;28;20482;-75
2023/01/18 06:45:26;;;;;;;13.60;13.00;;;4.90;34.70;;;;;;4993925;28;20210;-76
2023/01/18 06:47:52;;;;;;;13.23;12.63;;;4.90;35.40;;;;;;4994115;28;20182;-76
2023/01/18 06:50:18;;;;;;;13.80;13.20;;;4.90;35.40;;;;;;4994558;28;20428;-77
2023/01/18 06:52:44;;;;;;;14.97;14.30;;;4.80;35.60;;;;;;4977666;28;20186;-76
2023/01/18 06:55:11;;;;;;;14.00;13.27;;;4.90;35.20;;;;;;4997511;28;20973;-76
2023/01/18 06:57:36;;;;;;;13.93;13.33;;;4.90;34.70;;;;;;4996293;28;20443;-75
2023/01/18 07:00:05;;;;;;;14.70;14.00;;;4.80;35.30;;;;;;4974795;28;20909;-76
2023/01/18 07:02:32;;;;;;;14.30;13.70;;;4.90;34.90;;;;;;4993893;28;20574;-77
2023/01/18 07:04:57;;;;;;;16.20;15.40;;;4.90;34.80;;;;;;4995362;28;21017;-76
2023/01/18 07:07:23;;;;;;;16.00;15.30;;;4.80;35.50;;;;;;4978599;28;20461;-76
2023/01/18 07:09:48;;;;;;;17.20;16.33;;;4.70;36.50;;;;;;4994772;28;20268;-75
2023/01/18 07:12:14;;;;;;;16.03;15.30;;;4.80;35.50;;;;;;4994935;28;20250;-75
2023/01/18 07:14:40;;;;;;;15.77;14.97;;;4.80;36.00;;;;;;4996017;28;20637;-75
2023/01/18 07:17:05;;;;;;;16.63;15.80;;;4.90;35.30;;;;;;4998612;28;20276;-76
2023/01/18 07:19:31;;;;;;;17.03;16.03;;;5.00;34.60;;;;;;4981159;28;20629;-76
2023/01/18 07:21:57;;;;;;;16.67;15.87;;;5.00;34.40;;;;;;4997496;28;20190;-77
2023/01/18 07:24:23;;;;;;;16.43;15.50;;;4.80;35.30;;;;;;4999124;28;20275;-77
2023/01/18 07:26:49;;;;;;;14.90;14.20;;;4.50;36.40;;;;;;5008655;28;20519;-75
2023/01/18 07:29:14;;;;;;;16.03;15.30;;;4.40;38.00;;;;;;5017947;28;20177;-75
2023/01/18 07:31:40;;;;;;;14.43;13.77;;;4.40;37.60;;;;;;5017138;28;20309;-76
2023/01/18 07:34:06;;;;;;;14.93;14.23;;;4.40;37.70;;;;;;5017871;28;20169;-75
2023/01/18 07:36:31;;;;;;;16.17;15.47;;;4.50;36.30;;;;;;5017080;28;20219;-74
2023/01/18 07:38:57;;;;;;;16.17;15.13;;;4.60;35.90;;;;;;5016531;28;20412;-77
2023/01/18 07:41:24;;;;;;;16.90;16.10;;;4.70;35.50;;;;;;5016322;28;20636;-75
2023/01/18 07:43:50;;;;;;;15.80;15.00;;;4.80;34.90;;;;;;5014980;28;20256;-75
2023/01/18 07:46:19;;;;;;;15.23;14.53;;;4.90;35.70;;;;;;4996879;28;20432;-75
2023/01/18 07:48:45;;;;;;;17.67;16.77;;;5.00;35.80;;;;;;4981500;28;20302;-76
2023/01/18 07:51:10;;;;;;;15.37;14.67;;;5.10;36.20;;;;;;5014622;28;20447;-75
2023/01/18 07:53:38;;;;;;;15.53;14.73;;;5.10;37.40;;;;;;5016537;28;20412;-75
2023/01/18 07:56:10;;;;;;;16.20;15.33;;;5.10;36.80;;;;;;5015998;28;20205;-77
2023/01/18 07:58:35;;;;;;;15.10;14.30;;;5.10;36.40;;;;;;5015025;28;20424;-75
2023/01/18 08:01:07;;;;;;;15.23;14.50;;;5.10;34.00;;;;;;4995913;28;20409;-76
2023/01/18 08:03:33;;;;;;;17.07;16.17;;;5.00;33.80;;;;;;5014352;28;20212;-76
2023/01/18 08:05:59;;;;;;;15.00;14.30;;;4.80;34.10;;;;;;5013782;28;20503;-75
2023/01/18 08:08:27;;;;;;;16.93;16.03;;;4.90;33.90;;;;;;5015503;28;20181;-75
2023/01/18 08:10:57;;;;;;;17.20;16.30;;;5.00;33.40;;;;;;5014714;28;20451;-77
2023/01/18 08:13:24;;;;;;;18.77;17.87;;;5.00;33.10;;;;;;5010346;28;20431;-75
2023/01/18 08:15:50;;;;;;;16.57;15.57;;;4.80;33.90;;;;;;5012434;28;20536;-75
2023/01/18 08:18:15;;;;;;;17.90;16.90;;;4.50;34.20;;;;;;4994981;28;20421;-76
2023/01/18 08:20:46;;;;;;;17.50;16.60;;;4.50;35.00;;;;;;5012569;28;20415;-76
2023/01/18 08:23:12;;;;;;;18.37;17.40;;;4.50;35.70;;;;;;5011561;28;20531;-76
2023/01/18 08:25:38;;;;;;;17.10;16.30;;;4.50;34.00;;;;;;5012332;28;20485;-75
2023/01/18 08:28:04;;;;;;;16.53;15.80;;;4.50;33.70;;;;;;5012829;28;20400;-75
2023/01/18 08:30:34;;;;;;;16.50;15.47;;;4.60;33.70;;;;;;5012681;28;20412;-76
2023/01/18 08:33:01;;;;;;;16.50;15.70;;;4.60;33.10;;;;;;5011272;28;20779;-75
2023/01/18 08:35:28;;;;;;;19.30;18.17;;;4.60;33.30;;;;;;5013319;28;20429;-76
2023/01/18 08:37:55;;;;;;;18.37;17.20;;;4.30;35.40;;;;;;5013290;28;20488;-76
2023/01/18 08:40:22;;;;;;;15.57;14.87;;;4.10;37.50;;;;;;5012862;28;20404;-76
2023/01/18 08:42:48;;;;;;;16.90;16.00;;;4.10;36.40;;;;;;5014734;28;20432;-75
2023/01/18 08:45:15;;;;;;;16.07;15.37;;;4.20;34.80;;;;;;5015461;28;20817;-76
2023/01/18 08:47:40;;;;;;;15.73;15.00;;;4.00;37.00;;;;;;5017393;28;20416;-75
2023/01/18 08:50:09;;;;;;;15.50;14.80;;;4.20;35.70;;;;;;5020564;28;20439;-75
2023/01/18 08:52:35;;;;;;;16.77;15.90;;;4.30;35.70;;;;;;5019698;28;20408;-76
2023/01/18 08:55:02;;;;;;;15.50;14.70;;;4.40;35.20;;;;;;5018749;28;20470;-76
2023/01/18 08:57:27;;;;;;;15.80;14.90;;;4.10;37.20;;;;;;5020074;28;20436;-76
2023/01/18 08:59:55;;;;;;;15.73;14.93;;;4.20;36.00;;;;;;5023537;28;20438;-75
2023/01/18 09:02:21;;;;;;;15.50;14.80;;;4.50;35.50;;;;;;5023851;28;20174;-76
2023/01/18 09:04:47;;;;;;;16.27;15.47;;;4.60;35.30;;;;;;5019646;28;20475;-76
2023/01/18 09:07:13;;;;;;;15.30;14.60;;;4.80;35.50;;;;;;4994043;28;20432;-75
2023/01/18 09:09:39;;;;;;;15.07;14.37;;;4.50;35.30;;;;;;5010655;28;20428;-76
2023/01/18 09:12:04;;;;;;;14.80;14.10;;;4.60;33.90;;;;;;5012214;28;20412;-76
2023/01/18 09:14:30;;;;;;;14.40;13.73;;;4.70;33.70;;;;;;5012528;28;20185;-76
2023/01/18 09:16:55;;;;;;;13.80;13.10;;;4.80;33.10;;;;;;5012006;28;20193;-76
2023/01/18 09:19:21;;;;;;;15.40;14.67;;;4.80;33.10;;;;;;5014116;28;20186;-76
2023/01/18 09:21:48;;;;;;;15.13;14.40;;;4.80;33.90;;;;;;5015518;28;20193;-75
2023/01/18 09:24:14;;;;;;;13.83;13.23;;;4.90;33.30;;;;;;5015917;28;20201;-75
2023/01/18 09:26:40;;;;;;;13.00;12.50;;;5.00;31.80;;;;;;5014280;28;20463;-76
2023/01/18 09:29:06;;;;;;;14.60;14.00;;;5.10;31.20;;;;;;5015684;28;20412;-76
2023/01/18 09:31:31;;;;;;;14.23;13.53;;;5.00;31.20;;;;;;5015423;28;20201;-75
2023/01/18 09:33:57;;;;;;;14.67;13.97;;;5.00;32.50;;;;;;4997914;28;20456;-76
2023/01/18 09:36:26;;;;;;;15.37;14.67;;;5.10;31.90;;;;;;5015290;28;20278;-76
2023/01/18 09:38:53;;;;;;;15.47;14.77;;;5.20;31.20;;;;;;4997963;28;20185;-76
2023/01/18 09:41:33;;;;;;;15.13;14.23;;;4.80;32.60;;;;;;5015099;28;20416;-77
2023/01/18 09:44:19;;;;;;;14.70;14.10;;;4.50;34.50;;;;;;5015238;28;20470;-76
2023/01/18 09:46:50;;;;;;;14.90;14.27;;;4.60;33.40;;;;;;5014908;28;20440;-76
2023/01/18 09:49:25;;;;;;;14.00;13.40;;;4.30;35.00;;;;;;5015375;28;20964;-77
2023/01/18 09:52:23;;;;;;;15.60;14.87;;;4.50;34.30;;;;;;5014820;28;20909;-75
2023/01/18 09:55:21;;;;;;;14.80;14.10;;;4.70;34.20;;;;;;5016515;28;20409;-75
2023/01/18 09:58:22;;;;;;;16.07;15.27;;;4.90;33.80;;;;;;5015576;28;20409;-75
2023/01/18 10:00:48;;;;;;;15.30;14.60;;;5.10;33.50;;;;;;4981058;28;20459;-75
2023/01/18 10:03:45;;;;;;;16.67;15.83;;;5.20;33.10;;;;;;5016012;28;20413;-75
2023/01/18 10:06:44;;;;;;;14.70;14.10;;;5.10;33.20;;;;;;5014137;28;20468;-75
2023/01/18 10:09:25;;;;;;;15.57;14.70;;;5.10;32.80;;;;;;4977541;28;20409;-76
2023/01/18 10:12:00;;;;;;;15.53;14.73;;;4.70;33.80;;;;;;5014865;28;20890;-75
2023/01/18 10:14:46;;;;;;;15.03;14.33;;;4.50;33.80;;;;;;5013696;28;20419;-75
2023/01/18 10:17:19;;;;;;;16.70;15.90;;;4.50;33.90;;;;;;5015128;28;20898;-75
2023/01/18 10:19:45;;;;;;;15.60;14.80;;;4.20;35.60;;;;;;5015044;28;20891;-76
2023/01/18 10:22:26;;;;;;;15.80;15.00;;;4.00;36.10;;;;;;5013655;28;20420;-76
2023/01/18 10:25:04;;;;;;;15.93;15.23;;;4.20;35.80;;;;;;5013676;28;20459;-75
2023/01/18 10:28:08;;;;;;;15.50;14.50;;;4.30;36.00;;;;;;5014796;28;20424;-76
2023/01/18 10:30:47;;;;;;;16.13;15.33;;;4.50;34.20;;;;;;4993447;28;20424;-75
2023/01/18 10:33:20;;;;;;;15.90;15.00;;;4.50;34.10;;;;;;5020315;28;20408;-76
2023/01/18 10:35:49;;;;;;;15.20;14.40;;;4.70;34.20;;;;;;5029690;28;20505;-75
2023/01/18 10:38:22;;;;;;;16.00;15.20;;;4.80;33.10;;;;;;5030881;28;20412;-76
2023/01/18 10:40:56;;;;;;;15.17;14.27;;;4.80;33.40;;;;;;5031947;28;20438;-75
2023/01/18 10:43:24;;;;;;;15.50;14.70;;;4.50;34.70;;;;;;5035405;28;20420;-74
2023/01/18 10:45:51;;;;;;;16.93;16.07;;;4.30;36.00;;;;;;5034750;28;20412;-77
2023/01/18 10:48:19;;;;;;;16.57;15.57;;;4.50;35.00;;;;;;5033166;28;20409;-76
2023/01/18 10:50:47;;;;;;;16.47;15.43;;;4.60;33.70;;;;;;5017588;28;20887;-75
2023/01/18 10:53:22;;;;;;;17.17;16.20;;;4.50;34.50;;;;;;5026788;28;20443;-75
2023/01/18 10:56:09;;;;;;;17.27;16.37;;;4.10;35.40;;;;;;5033784;28;20412;-76
2023/01/18 10:58:43;;;;;;;16.93;16.13;;;3.90;37.60;;;;;;5022590;28;20899;-75
2023/01/18 11:01:30;;;;;;;17.37;16.00;;;4.00;37.70;;;;;;5016686;28;20423;-76
2023/01/18 11:04:06;;;;;;;17.60;16.53;;;3.70;37.50;;;;;;5014665;28;20471;-76
2023/01/18 11:06:49;;;;;;;16.80;15.90;;;3.30;40.20;;;;;;5016266;28;20444;-76
2023/01/18 11:09:33;;;;;;;18.00;16.90;;;3.50;40.80;;;;;;5018238;28;20467;-75
2023/01/18 11:12:32;;;;;;;17.13;16.13;;;3.90;38.70;;;;;;5015486;28;20447;-76
2023/01/18 11:15:15;;;;;;;17.20;16.20;;;4.30;36.90;;;;;;5019206;28;20467;-76
2023/01/18 11:17:54;;;;;;;17.13;16.20;;;4.10;37.70;;;;;;5033869;28;20416;-75
2023/01/18 11:20:33;;;;;;;16.73;15.83;;;4.00;37.70;;;;;;5036075;28;20495;-75
2023/01/18 11:23:02;;;;;;;16.03;15.13;;;3.80;39.00;;;;;;5016243;28;20412;-76
2023/01/18 11:25:37;;;;;;;15.20;14.40;;;4.10;37.70;;;;;;5025406;28;20483;-75
2023/01/18 11:28:06;;;;;;;15.80;14.67;;;4.30;35.40;;;;;;4994972;28;20908;-75
2023/01/18 11:30:33;;;;;;;15.23;14.33;;;4.40;35.40;;;;;;5015243;28;20447;-76
2023/01/18 11:32:58;;;;;;;15.80;15.00;;;4.50;34.20;;;;;;5013686;28;20512;-76
2023/01/18 11:35:31;;;;;;;16.70;15.67;;;4.60;34.70;;;;;;5013949;28;20515;-75
2023/01/18 11:37:58;;;;;;;15.30;14.60;;;4.70;33.40;;;;;;5027534;28;20177;-75
2023/01/18 11:40:31;;;;;;;16.10;15.30;;;4.80;32.90;;;;;;5019103;28;20919;-75
2023/01/18 11:43:09;;;;;;;15.17;14.07;;;4.70;33.30;;;;;;5012057;28;20427;-75
2023/01/18 11:45:46;;;;;;;15.53;14.73;;;4.70;33.40;;;;;;5013976;28;20879;-76
2023/01/18 11:48:28;;;;;;;14.90;14.20;;;4.60;33.20;;;;;;5012631;28;20418;-76
2023/01/18 11:51:29;;;;;;;15.17;14.27;;;4.50;33.80;;;;;;5012677;28;20515;-76
2023/01/18 11:54:20;;;;;;;16.70;15.70;;;4.40;34.80;;;;;;5009374;28;20421;-76
2023/01/18 11:56:49;;;;;;;15.50;14.50;;;4.40;34.20;;;;;;5012271;28;20445;-76
2023/01/18 11:59:21;;;;;;;14.57;13.70;;;4.30;36.90;;;;;;5013975;28;20392;-76
2023/01/18 12:02:06;;;;;;;13.33;12.53;;;4.20;35.20;;;;;;5013822;28;20409;-75
2023/01/18 12:04:58;;;;;;;13.67;12.97;;;4.10;34.80;;;;;;5012344;28;21049;-75
2023/01/18 12:07:50;;;;;;;13.77;12.97;;;4.30;34.60;;;;;;5012111;28;20511;-75
2023/01/18 12:10:24;;;;;;;13.50;12.80;;;4.60;33.30;;;;;;5013337;28;20408;-75
2023/01/18 12:12:51;;;;;;;14.03;13.33;;;4.70;32.40;;;;;;5011621;28;20428;-76
2023/01/18 12:15:50;;;;;;;13.80;12.97;;;4.90;31.50;;;;;;5012969;28;20574;-75
2023/01/18 12:18:43;;;;;;;13.30;12.60;;;4.90;30.70;;;;;;4990683;28;20436;-76
2023/01/18 12:21:15;;;;;;;14.83;14.03;;;4.90;31.40;;;;;;5012938;28;20426;-76
2023/01/18 12:23:55;;;;;;;15.80;14.97;;;4.90;31.00;;;;;;4995442;28;21007;-75
2023/01/18 12:26:36;;;;;;;15.30;14.30;;;4.70;33.80;;;;;;5012938;28;20514;-76
2023/01/18 12:29:35;;;;;;;15.00;14.10;;;4.90;33.10;;;;;;5013716;28;20404;-76
2023/01/18 12:32:09;;;;;;;14.70;13.80;;;5.10;31.20;;;;;;4988228;28;20434;-76
2023/01/18 12:35:25;;;;;;;15.20;14.30;;;5.20;30.20;;;;;;4993494;28;20416;-76
2023/01/18 12:38:23;;;;;;;15.73;14.90;;;5.20;29.90;;;;;;4989950;28;20448;-76
2023/01/18 12:41:17;;;;;;;14.80;13.90;;;5.30;29.10;;;;;;4992170;28;20474;-74
2023/01/18 12:44:17;;;;;;;13.87;13.07;;;5.20;29.30;;;;;;4991762;28;20477;-76
2023/01/18 12:47:04;;;;;;;15.30;14.47;;;5.20;28.90;;;;;;4992807;28;20498;-76
2023/01/18 12:49:35;;;;;;;15.13;14.20;;;5.10;29.10;;;;;;4993004;28;20504;-75
2023/01/18 12:52:03;;;;;;;14.63;13.73;;;5.10;29.60;;;;;;4993006;28;20444;-76
2023/01/18 12:54:38;;;;;;;14.90;14.13;;;5.20;29.10;;;;;;4995766;28;20781;-76
2023/01/18 12:57:05;;;;;;;15.07;14.30;;;5.20;29.00;;;;;;4996779;28;20911;-76
2023/01/18 12:59:57;;;;;;;14.10;13.40;;;5.20;29.00;;;;;;4995749;28;20429;-76
2023/01/18 13:02:35;;;;;;;14.37;13.47;;;5.20;28.90;;;;;;4996812;28;20424;-75
2023/01/18 13:05:03;;;;;;;15.77;14.97;;;4.90;31.30;;;;;;4996532;28;20890;-76
2023/01/18 13:07:36;;;;;;;14.80;14.00;;;4.70;32.40;;;;;;4995735;28;21018;-76
2023/01/18 13:10:04;;;;;;;14.47;13.67;;;4.30;33.40;;;;;;5016185;28;20413;-76
2023/01/18 13:12:30;;;;;;;14.87;14.07;;;4.30;33.90;;;;;;5016027;28;20412;-76
2023/01/18 13:15:14;;;;;;;14.50;13.87;;;4.50;33.70;;;;;;5014913;28;20424;-76
2023/01/18 13:17:56;;;;;;;14.60;13.70;;;4.90;32.00;;;;;;5014632;28;20428;-76
2023/01/18 13:20:37;;;;;;;14.93;14.10;;;5.10;30.50;;;;;;5016188;28;20820;-75
2023/01/18 13:23:52;;;;;;;15.67;14.57;;;5.30;30.20;;;;;;5014909;28;20944;-75
2023/01/18 13:26:32;;;;;;;15.43;14.57;;;5.50;29.20;;;;;;4989438;28;20470;-75
2023/01/18 13:29:27;;;;;;;15.50;14.70;;;5.40;29.30;;;;;;5015827;28;20408;-75
2023/01/18 13:31:52;;;;;;;14.10;13.20;;;5.10;30.90;;;;;;4998165;28;20432;-76